Details From LPPT - Lisboa
To SBRF - Recife Intl
Flight Number -
Tags Generated
Created
Modified
Stats Distance 3,164 nm / 5,860 km
Max Altitude 0 ft / 0 m
Waypoints 3
Social Downloads 3
Likes 0
Share VATSIM

Download

Looking for another format? Having issues loading an existing format? Contact us
Advertisement - Login to hide

Notes

Generated

Route

LPPT REC33 SBRF

ID Type Via Altitude Latitude Longitude Leg Dist Tot Dist Heading (true) Name
O LPPT APT - 0 ft / 0 m 38.78624˚ -9.13721˚ - 0 nm - -
REC33 FIX - 0 ft / 0 m -7.99304˚ -34.84078˚ 3154 nm 3154 nm 213° / 205° -
O SBRF APT - 0 ft / 0 m -8.12516˚ -34.92862˚ 9 nm 3163 nm 213° / 213° -

Altitude Profile

Advertisement - Login to hide

Weather


0- 5 10 15 20 25 30 35+ Temperature / ° C

Clouds and Precipitation
Forecast for 2018-05-25 12:00 UTC. Updated 4 hours ago

Ground ~20,000 ft ~40,000 ft Winds

LPPT

Details ICAO LPPT (LIS)
Name Lisboa
Region Portugal
Timezone Europe/Lisbon (UTC+1.0)
Stats Elevation 374 ft / 114 m (AMSL)
Location 38.778559° -9.135146°
Runways 2
Magnetic Variation 2.309° W

METAR

LPPT 251500Z 26009KT 220V300 9999 FEW024 FEW030TCU 19/13 Q1012

Decode

TAF

TAF TAF LPPT 251130Z 2512/2618 18005KT 9999 SCT025 BECMG 2515/2517 33010KT PROB30 TEMPO 2515/2521 5000 TSRA SCT025CB BECMG 2518/2521 VRB05KT PROB30 TEMPO 2602/2608 BKN008 BECMG 2615/2617 32012KT

Decode

Departure Runways

ID Width Length Bearing (true) Bearing (mag) Surface Threshold Offset Overrun Length
03 148 ft / 45 m 12,518 ft / 3,815 m 22.70° 25.01° Asphalt 296 ft / 90 m 0 ft / 0 m
17 148 ft / 45 m 7,922 ft / 2,415 m 168.38° 170.69° Asphalt 0 ft / 0 m 0 ft / 0 m
21 148 ft / 45 m 12,518 ft / 3,815 m 202.72° 205.03° Asphalt 1,969 ft / 600 m 0 ft / 0 m
35 148 ft / 45 m 7,922 ft / 2,415 m 348.38° 350.69° Asphalt 492 ft / 150 m 0 ft / 0 m

SBRF

Details ICAO SBRF (REC)
Name Recife Intl
Region Brazil
Timezone America/Recife (UTC-3.0)
Stats Elevation 33 ft / 10 m (AMSL)
Location -8.127896° -34.922981°
Runways 2
Magnetic Variation 22.074° W

METAR

SBRF 251400Z 13012KT 9999 VCSH SCT020 FEW023TCU 29/23 Q1015

Decode

TAF

TAF SBRF 251000Z 2512/2612 12010KT 8000 SCT020 TX29/2515Z TN24/2606Z PROB40 TEMPO 2512/2515 5000 SHRA BKN015 FEW025TCU RMK PEA

Decode

Destination Runways

ID Width Length Bearing (true) Bearing (mag) Surface Threshold Offset Overrun Length
01 98 ft / 30 m 4,979 ft / 1,518 m 304.20° 326.27° Asphalt 300 ft / 91 m 0 ft / 0 m
18 148 ft / 45 m 9,915 ft / 3,022 m 161.91° 183.98° Asphalt 1,225 ft / 373 m 0 ft / 0 m
19 98 ft / 30 m 4,979 ft / 1,518 m 124.20° 146.27° Asphalt 300 ft / 91 m 0 ft / 0 m
36 148 ft / 45 m 9,915 ft / 3,022 m 341.91° 3.98° Asphalt 0 ft / 0 m 350 ft / 107 m

Approach Navaids

Runway Type Ident Frequency Range Bearing (true) Bearing (mag) Slope Elevation
18 Localiser IRF 110.30 MHz 18 nm / 33 km 161.91° 183.98° - 33 ft / 10 m (AMSL)
18 Glidescope IRF 110.30 MHz 10 nm / 19 km 161.91° 183.98° 3.00° 33 ft / 10 m (AMSL)

Popular Alternatives